• Join FlightAware (Why Join?)
  • Login
  • US Flag 
08:55PM EDT


 

Airport Tracker/Info


-or-


 

Live Flight TrackerFlight Track Log ✈ SWA22 ✈ 19-Feb-2012 ✈ KHOU - KSAT

Flight Track Log - Related Links

Times and Time Zones

All times are in EST time to prevent confusion due to time zone crossing. See the SWA22 flight status page for this flight to view local times or setup timezone preferences in your user account.

Time Position Orientation Groundspeed Altitude Reporting Facility
EST Latitude Longitude Course Direction KTS MPH feet Rate Location/Type
09:47PM 29.6361 -95.2936 223° Southwest 145 167 900  Level Houston Center
09:47PM 29.6231 -95.3075 227° Southwest 173 199 1,800 3,060 Climbing Houston Center
09:48PM 29.5756 -95.3656 263° West 253 291 5,400 3,960 Climbing Houston Center
09:49PM 29.5672 -95.4417 305° West 279 321 9,900 3,840 Climbing Houston Center
09:50PM 29.5853 -95.4708 305° West 287 330 11,100 2,820 Climbing Houston Center
09:51PM 29.6392 -95.5589 285° West 311 358 14,200 3,660 Climbing Houston Center
09:52PM 29.6631 -95.6625 284° West 321 369 18,500 3,600 Climbing Houston Center
09:53PM 29.6853 -95.7639 284° West 331 381 21,500 2,700 Climbing Houston Center
09:54PM 29.7089 -95.8747 278° West 341 392 24,000 2,700 Climbing Houston Center
09:55PM 29.7222 -95.9828 277° West 347 399 27,000 1,980 Climbing Houston Center
09:56PM 29.7333 -96.0933 276° West 353 406 28,000 480 Climbing Houston Center
09:57PM 29.7442 -96.2061 276° West 353 406 28,000  Level Houston Center
09:58PM 29.7550 -96.3167 278° West 353 406 28,000  Level Houston Center
09:59PM 29.7681 -96.4250 275° West 353 406 28,000  Level Houston Center
10:00PM 29.7764 -96.5378 276° West 353 406 28,000  Level Houston Center
10:01PM 29.7869 -96.6506 278° West 353 406 28,000  Level Houston Center
10:02PM 29.7997 -96.7614 275° West 353 406 28,000  Level Houston Center
10:03PM 29.8078 -96.8742 276° West 353 406 28,000 -480 Level Houston Center
10:04PM 29.8183 -96.9822 276° West 353 406 27,100 -1,020 Descending Houston Center
10:05PM 29.8269 -97.0786 276° West 332 382 26,000 -1,080 Descending Houston Center
10:06PM 29.8358 -97.1722 277° West 314 361 25,000 -1,020 Descending Houston Center
10:07PM 29.8464 -97.2708 275° West 309 356 24,000 -1,140 Descending Houston Center
10:08PM 29.8528 -97.3622 277° West 309 356 22,800 -1,500 Descending Houston Center
10:09PM 29.8617 -97.4489 275° West 291 335 21,100 -1,740 Descending Houston Center
10:10PM 29.8686 -97.5331 275° West 280 322 19,400 -1,500 Descending Houston Center
10:11PM 29.8778 -97.6558 274° West 322 371 17,900 -1,500 Descending Houston Center
10:11PM 29.8803 -97.6942 278° West 330 380 17,100 -2,400 Descending Houston Center
10:12PM 29.8864 -97.7422 273° West 316 364 15,900 -2,880 Descending Houston Center
10:12PM 29.8897 -97.8072 281° West 326 375 14,200 -2,520 Descending Houston Center
10:13PM 29.8947 -97.8361 256° West 327 376 13,400 -1,200 Descending Houston Center
10:13PM 29.8789 -97.9072 242° Southwest 329 379 13,000 -420 Descending Houston Center
10:14PM 29.8628 -97.9419 246° West 327 376 13,000  Level Houston Center
10:14PM 29.8392 -98.0028 240° Southwest 327 376 13,000  Level Houston Center
10:15PM 29.8275 -98.0261 245° Southwest 327 376 13,000 -1,380 Level Houston Center
10:15PM 29.7969 -98.1031 244° Southwest 325 374 11,500 -2,040 Descending Houston Center
10:16PM 29.7850 -98.1308 245° Southwest 332 382 11,000 -1,140 Descending Houston Center
10:16PM 29.7592 -98.1939 240° Southwest 306 352 10,400 -840 Descending Houston Center
10:17PM 29.7522 -98.2078 243° Southwest 321 369 10,200 -1,200 Descending Houston Center
10:17PM 29.7217 -98.2775 244° Southwest 269 310 9,200 -1,440 Descending Houston Center
10:18PM 29.7147 -98.2939 245° Southwest 286 329 8,800 -1,680 Descending Houston Center
10:18PM 29.6981 -98.3358 244° Southwest 263 303 7,900 -1,500 Descending Houston Center
10:19PM 29.6883 -98.3592 245° Southwest 270 311 7,300 -1,980 Descending Houston Center
10:19PM 29.6622 -98.4242 251° West 253 291 5,500 -2,040 Descending Houston Center
10:20PM 29.6572 -98.4406 247° West 264 304 5,300 -600 Descending Houston Center
10:20PM 29.6403 -98.4872 256° West 197 227 4,900 -720 Descending Houston Center
10:21PM 29.6378 -98.4992 240° Southwest 226 260 4,600 -1,380 Descending Houston Center
10:21PM 29.6239 -98.5267 233° Southwest 159 183 3,800 -1,500 Descending Houston Center
10:22PM 29.6147 -98.5406 214° Southwest 166 191 3,100 -1,320 Descending Houston Center
10:22PM 29.5953 -98.5558 133° Southeast 131 151 2,400 -900 Descending Houston Center
10:23PM 29.5872 -98.5458 136° Southeast 105 121 2,200 -660 Descending Houston Center
10:23PM 29.5736 -98.5306 117° Southeast 122 140 1,800 -720 Descending Houston Center
10:24PM 29.5661 -98.5133 145° Southeast 110 127 1,500 -720 Descending Houston Center
10:24PM 29.5500 -98.5003 120° Southeast 123 142 1,100 -600 Descending Houston Center
10:25PM 29.5425 -98.4856 134° Southeast 122 140 900 -240 Descending Houston Center
10:26PM 29.5167 -98.4553 134° Southeast 122 140 800 -120 Descending Houston Center